Time;durP1;ratioP1;P1;durP2;ratioP2;P2;SDS_P1;SDS_P2;PMS_P1;PMS_P2;Temp;Humidity;BMP_temperature;BMP_pressure;BME280_temperature;BME280_humidity;BME280_pressure;Samples;Min_cycle;Max_cycle;Signal;HPM_P1;HPM_P2
2024/01/05 00:02:14;;;;;;;24.85;11.63;;;;;;;;;;5122634;27;20054;-77
2024/01/05 00:04:40;;;;;;;23.25;11.80;;;;;;;;;;5103873;27;20727;-79
2024/01/05 00:07:09;;;;;;;22.60;11.85;;;;;;;;;;5098712;27;20043;-80
2024/01/05 00:09:35;;;;;;;27.88;12.40;;;;;;;;;;5085673;27;20126;-79
2024/01/05 00:12:03;;;;;;;27.33;13.57;;;;;;;;;;5077210;28;20043;-82
2024/01/05 00:14:29;;;;;;;25.00;11.65;;;2.80;99.90;;;;;;5117687;27;20054;-82
2024/01/05 00:16:58;;;;;;;33.92;15.10;;;;;;;;;;5094718;28;20415;-81
2024/01/05 00:19:25;;;;;;;24.83;13.27;;;;;;;;;;5116035;28;20118;-81
2024/01/05 00:21:53;;;;;;;27.17;13.13;;;;;;;;;;5087417;28;20039;-82
2024/01/05 00:24:20;;;;;;;28.80;14.63;;;;;;;;;;5091403;27;20042;-80
2024/01/05 00:26:46;;;;;;;30.20;15.02;;;;;;;;;;5108485;28;20039;-82
2024/01/05 00:29:12;;;;;;;31.92;14.48;;;;;;;;;;5104502;27;20741;-80
2024/01/05 00:31:39;;;;;;;35.45;15.20;;;;;;;;;;5089786;27;20703;-81
2024/01/05 00:34:05;;;;;;;37.63;16.10;;;;;;;;;;5114976;27;20716;-82
2024/01/05 00:36:31;;;;;;;32.83;14.77;;;;;;;;;;5104845;27;20054;-80
2024/01/05 00:38:57;;;;;;;34.70;15.25;;;;;;;;;;5087290;27;20035;-81
2024/01/05 00:41:24;;;;;;;34.72;16.40;;;;;;;;;;5088636;27;20471;-82
2024/01/05 00:43:50;;;;;;;32.58;15.98;;;;;;;;;;5111301;27;20042;-81
2024/01/05 00:46:16;;;;;;;32.38;16.45;;;;;;;;;;5128313;27;20732;-81
2024/01/05 00:48:42;;;;;;;37.13;16.38;;;2.50;99.90;;;;;;5111072;27;20045;-82
2024/01/05 00:51:08;;;;;;;37.28;17.58;;;2.20;99.90;;;;;;5111270;27;20050;-80
2024/01/05 00:53:34;;;;;;;37.60;17.52;;;;;;;;;;5124089;27;20050;-82
2024/01/05 00:56:00;;;;;;;40.67;16.80;;;;;;;;;;5108199;27;20047;-79
2024/01/05 00:58:26;;;;;;;43.47;17.98;;;;;;;;;;5090806;27;20506;-81
2024/01/05 01:00:53;;;;;;;34.92;17.13;;;;;;;;;;5090877;27;20047;-80
2024/01/05 01:03:19;;;;;;;41.38;16.88;;;;;;;;;;5091107;27;20061;-81
2024/01/05 01:05:45;;;;;;;34.40;16.92;;;;;;;;;;5090875;27;20046;-81
2024/01/05 01:08:12;;;;;;;34.25;15.32;;;;;;;;;;5090271;27;20176;-83
2024/01/05 01:10:39;;;;;;;31.25;15.07;;;;;;;;;;5090696;27;20047;-82
2024/01/05 01:13:05;;;;;;;34.65;14.80;;;2.00;99.90;;;;;;5127611;27;20051;-82
2024/01/05 01:15:31;;;;;;;36.55;15.82;;;;;;;;;;5109828;27;20050;-81
2024/01/05 01:17:57;;;;;;;35.90;14.60;;;;;;;;;;5110710;27;20049;-81
2024/01/05 01:20:23;;;;;;;38.63;15.30;;;;;;;;;;5110367;27;20047;-81
2024/01/05 01:22:49;;;;;;;32.90;14.45;;;;;;;;;;5109956;27;20597;-81
2024/01/05 01:25:16;;;;;;;31.00;14.10;;;2.10;99.90;;;;;;5117547;27;20046;-82
2024/01/05 01:27:42;;;;;;;32.03;12.82;;;;;;;;;;5090285;27;20047;-81
2024/01/05 01:30:08;;;;;;;31.20;14.10;;;;;;;;;;5090671;27;20047;-81
2024/01/05 01:32:36;;;;;;;33.17;13.40;;;;;;;;;;5090049;27;20041;-80
2024/01/05 01:35:03;;;;;;;38.80;12.80;;;1.80;99.90;;;;;;5114962;27;20045;-80
2024/01/05 01:37:29;;;;;;;28.92;12.02;;;;;;;;;;5110485;27;20038;-81
2024/01/05 01:39:55;;;;;;;32.00;13.88;;;;;;;;;;5103356;27;20073;-79
2024/01/05 01:42:24;;;;;;;27.88;12.35;;;;;;;;;;5107374;27;20039;-80
2024/01/05 01:44:51;;;;;;;32.67;13.95;;;2.00;99.90;;;;;;5089955;27;20134;-80
2024/01/05 01:47:17;;;;;;;36.88;13.90;;;;;;;;;;5107059;27;20090;-81
2024/01/05 01:49:44;;;;;;;38.95;12.50;;;;;;;;;;5090570;27;20142;-81
2024/01/05 01:52:10;;;;;;;26.17;11.07;;;;;;;;;;5090083;27;20039;-83
2024/01/05 01:54:37;;;;;;;32.63;13.10;;;;;;;;;;5106212;27;20043;-82
2024/01/05 01:57:04;;;;;;;35.53;14.13;;;2.00;99.90;;;;;;5107511;27;20503;-80
2024/01/05 01:59:30;;;;;;;38.40;13.43;;;;;;;;;;5107307;27;20039;-82
2024/01/05 02:01:57;;;;;;;38.30;13.43;;;1.90;99.90;;;;;;5108699;27;20176;-82
2024/01/05 02:04:25;;;;;;;46.10;13.85;;;2.00;99.90;;;;;;5126953;27;20039;-81
2024/01/05 02:06:51;;;;;;;39.13;14.57;;;;;;;;;;5109559;27;20038;-82
2024/01/05 02:09:18;;;;;;;40.42;14.13;;;;;;;;;;5109675;27;20038;-81
2024/01/05 02:11:44;;;;;;;74.75;17.45;;;;;;;;;;5109919;27;20074;-83
2024/01/05 02:14:10;;;;;;;36.35;13.70;;;;;;;;;;5105822;27;20484;-81
2024/01/05 02:16:37;;;;;;;45.85;15.05;;;;;;;;;;5125865;27;20039;-81
2024/01/05 02:19:03;;;;;;;47.85;14.50;;;;;;;;;;5126082;27;20495;-81
2024/01/05 02:21:38;;;;;;;54.33;15.57;;;2.10;99.90;;;;;;5126110;27;20089;-80
2024/01/05 02:24:05;;;;;;;49.53;16.10;;;;;;;;;;5109341;27;20043;-81
2024/01/05 02:26:31;;;;;;;53.25;16.20;;;;;;;;;;5104504;27;20067;-83
2024/01/05 02:28:57;;;;;;;52.40;15.63;;;;;;;;;;5089043;27;20638;-84
2024/01/05 02:31:23;;;;;;;62.70;17.48;;;;;;;;;;5125059;27;20043;-81
2024/01/05 02:33:49;;;;;;;57.25;17.30;;;;;;;;;;5089569;27;20039;-82
2024/01/05 02:36:15;;;;;;;54.80;17.17;;;;;;;;;;5089390;27;20050;-80
2024/01/05 02:38:41;;;;;;;54.78;16.95;;;;;;;;;;5089733;27;20162;-78
2024/01/05 02:41:08;;;;;;;54.47;17.13;;;1.90;99.90;;;;;;5105704;27;20524;-83
2024/01/05 02:43:34;;;;;;;61.15;19.52;;;;;;;;;;5106051;27;20039;-83
2024/01/05 02:46:01;;;;;;;51.50;15.93;;;1.90;99.90;;;;;;5098017;27;20194;-83
2024/01/05 02:48:27;;;;;;;61.75;18.58;;;;;;;;;;5107965;27;20047;-82
2024/01/05 02:50:53;;;;;;;59.80;18.75;;;;;;;;;;5125186;27;20043;-81
2024/01/05 02:53:19;;;;;;;60.45;17.05;;;;;;;;;;5095056;27;20125;-88
2024/01/05 02:55:45;;;;;;;49.60;17.20;;;;;;;;;;5090545;27;20081;-83
2024/01/05 02:58:11;;;;;;;65.50;19.48;;;;;;;;;;5106189;27;20133;-85
2024/01/05 03:00:38;;;;;;;58.05;17.90;;;;;;;;;;5088644;27;20043;-84
2024/01/05 03:03:04;;;;;;;58.05;18.17;;;;;;;;;;5104598;27;20076;-85
2024/01/05 03:05:31;;;;;;;69.88;19.75;;;;;;;;;;5108456;27;20038;-81
2024/01/05 03:07:57;;;;;;;60.45;19.02;;;;;;;;;;5108294;27;20403;-85
2024/01/05 03:10:23;;;;;;;63.08;18.83;;;;;;;;;;5108637;27;20689;-85
2024/01/05 03:12:51;;;;;;;66.18;19.08;;;;;;;;;;5108615;27;20495;-85
2024/01/05 03:15:20;;;;;;;71.30;19.60;;;;;;;;;;5098743;27;20121;-82
2024/01/05 03:17:47;;;;;;;68.10;18.95;;;;;;;;;;5088574;27;20042;-83
2024/01/05 03:20:16;;;;;;;71.65;18.50;;;;;;;;;;5089336;27;20619;-84
2024/01/05 03:22:42;;;;;;;64.45;20.40;;;;;;;;;;5088993;27;20039;-83
2024/01/05 03:25:08;;;;;;;69.13;19.48;;;;;;;;;;5100869;27;20034;-84
2024/01/05 03:27:36;;;;;;;81.40;19.27;;;2.00;99.90;;;;;;5091651;27;20408;-83
2024/01/05 03:30:02;;;;;;;70.50;19.88;;;;;;;;;;5122597;27;20078;-86
2024/01/05 03:32:29;;;;;;;67.22;20.08;;;;;;;;;;5107571;27;20134;-84
2024/01/05 03:34:55;;;;;;;72.38;21.10;;;;;;;;;;5107564;27;20121;-83
2024/01/05 03:37:21;;;;;;;60.65;18.65;;;;;;;;;;5117452;27;20039;-84
2024/01/05 03:39:47;;;;;;;68.82;19.42;;;;;;;;;;5124952;27;20043;-84
2024/01/05 03:42:13;;;;;;;63.67;19.23;;;;;;;;;;5108289;27;20038;-82
2024/01/05 03:44:39;;;;;;;67.88;19.05;;;;;;;;;;5125187;27;20041;-83
2024/01/05 03:47:06;;;;;;;58.67;18.90;;;;;;;;;;5095061;28;20043;-82
2024/01/05 03:49:32;;;;;;;68.05;20.20;;;;;;;;;;5105608;28;20047;-82
2024/01/05 03:51:58;;;;;;;73.88;22.10;;;;;;;;;;5105197;28;20381;-84
2024/01/05 03:54:24;;;;;;;67.15;20.10;;;;;;;;;;5088713;28;20514;-84
2024/01/05 03:56:50;;;;;;;62.25;18.38;;;;;;;;;;5087749;28;20075;-83
2024/01/05 03:59:16;;;;;;;64.30;18.52;;;;;;;;;;5088791;28;20480;-85
2024/01/05 04:01:43;;;;;;;68.47;19.77;;;;;;;;;;5088510;27;20047;-82
2024/01/05 04:04:09;;;;;;;70.80;18.92;;;;;;;;;;5101686;27;20441;-84
2024/01/05 04:06:35;;;;;;;60.15;16.83;;;;;;;;;;5106685;27;20126;-82
2024/01/05 04:09:03;;;;;;;64.90;19.15;;;;;;;;;;5108210;27;20737;-85
2024/01/05 04:11:30;;;;;;;61.13;18.05;;;;;;;;;;5126155;27;20051;-84
2024/01/05 04:13:57;;;;;;;62.30;17.10;;;2.20;99.90;;;;;;5125568;27;20545;-85
2024/01/05 04:16:23;;;;;;;69.53;18.42;;;2.30;99.90;;;;;;5109065;27;20074;-84
2024/01/05 04:18:49;;;;;;;66.40;18.08;;;;;;;;;;5123312;27;20130;-84
2024/01/05 04:21:15;;;;;;;64.35;16.83;;;;;;;;;;5112256;27;20050;-82
2024/01/05 04:23:42;;;;;;;53.20;17.30;;;;;;;;;;5112496;27;20557;-83
2024/01/05 04:26:08;;;;;;;54.08;16.98;;;;;;;;;;5101242;27;20039;-85
2024/01/05 04:28:34;;;;;;;56.10;17.35;;;;;;;;;;5110094;27;20031;-82
2024/01/05 04:31:00;;;;;;;54.08;17.30;;;;;;;;;;5112692;27;20054;-85
2024/01/05 04:33:26;;;;;;;55.88;17.33;;;;;;;;;;5120863;27;20774;-85
2024/01/05 04:35:53;;;;;;;65.55;18.70;;;;;;;;;;5093236;27;20130;-82
2024/01/05 04:38:19;;;;;;;56.97;17.75;;;;;;;;;;5093029;27;20043;-86
2024/01/05 04:40:45;;;;;;;61.83;18.35;;;;;;;;;;5092838;27;20050;-84
2024/01/05 04:43:11;;;;;;;52.83;16.35;;;;;;;;;;5109405;27;20123;-83
2024/01/05 04:45:37;;;;;;;65.55;17.95;;;;;;;;;;5110945;27;20544;-82
2024/01/05 04:48:03;;;;;;;53.80;16.63;;;3.00;99.90;;;;;;5127515;27;20093;-83
2024/01/05 04:50:29;;;;;;;50.58;15.05;;;;;;;;;;5127589;27;20042;-84
2024/01/05 04:52:55;;;;;;;50.17;15.73;;;;;;;;;;5127398;27;20043;-81
2024/01/05 04:55:22;;;;;;;61.25;16.85;;;;;;;;;;5110270;27;20039;-82
2024/01/05 04:57:48;;;;;;;55.55;16.63;;;;;;;;;;5110574;27;20047;-82
2024/01/05 05:00:14;;;;;;;59.53;18.33;;;;;;;;;;5100697;27;20099;-83
2024/01/05 05:02:40;;;;;;;56.97;16.83;;;2.10;99.90;;;;;;5109941;27;20065;-83
2024/01/05 05:05:06;;;;;;;56.55;17.98;;;;;;;;;;5125020;27;20070;-83
2024/01/05 05:07:32;;;;;;;55.00;17.30;;;2.10;99.90;;;;;;5090876;27;20480;-82
2024/01/05 05:09:57;;;;;;;68.18;18.77;;;2.40;99.90;;;;;;5090855;27;20041;-82
2024/01/05 05:12:24;;;;;;;56.15;17.77;;;;;;;;;;5091124;27;20054;-82
2024/01/05 05:14:50;;;;;;;64.75;18.30;;;;;;;;;;5090405;27;20765;-83
2024/01/05 05:17:16;;;;;;;62.40;19.27;;;;;;;;;;5090345;27;20819;-82
2024/01/05 05:19:42;;;;;;;62.85;19.67;;;;;;;;;;5118620;27;20030;-82
2024/01/05 05:22:08;;;;;;;66.25;21.45;;;;;;;;;;5127168;27;20110;-83
2024/01/05 05:24:35;;;;;;;74.95;20.02;;;;;;;;;;5127494;27;20046;-82
2024/01/05 05:27:01;;;;;;;67.93;19.70;;;;;;;;;;5101431;27;20039;-83
2024/01/05 05:29:27;;;;;;;60.72;18.75;;;;;;;;;;5097558;27;20046;-82
2024/01/05 05:31:53;;;;;;;65.65;18.83;;;;;;;;;;5091716;27;20051;-83
2024/01/05 05:34:19;;;;;;;61.75;18.30;;;;;;;;;;5110462;27;20042;-81
2024/01/05 05:36:46;;;;;;;62.72;19.08;;;;;;;;;;5110159;27;20042;-81
2024/01/05 05:39:12;;;;;;;66.03;19.55;;;;;;;;;;5100283;27;20038;-86
2024/01/05 05:41:38;;;;;;;65.05;18.90;;;;;;;;;;5126620;27;20053;-84
2024/01/05 05:44:04;;;;;;;69.50;20.00;;;;;;;;;;5094729;27;20131;-82
2024/01/05 05:46:33;;;;;;;62.67;19.23;;;;;;;;;;5118698;27;20532;-82
2024/01/05 05:48:59;;;;;;;66.63;18.65;;;;;;;;;;5103494;27;20042;-84
2024/01/05 05:51:25;;;;;;;63.28;18.67;;;;;;;;;;5093205;27;20092;-82
2024/01/05 05:53:52;;;;;;;60.92;18.88;;;;;;;;;;5106052;27;20504;-82
2024/01/05 05:56:18;;;;;;;66.45;19.10;;;;;;;;;;5099570;27;20046;-83
2024/01/05 05:58:49;;;;;;;63.70;20.35;;;2.50;99.90;;;;;;5107755;27;20043;-81
2024/01/05 06:01:16;;;;;;;68.75;20.10;;;;;;;;;;5123262;27;20039;-81
2024/01/05 06:03:42;;;;;;;61.25;19.42;;;;;;;;;;5110016;27;20042;-80
2024/01/05 06:06:23;;;;;;;66.40;19.00;;;2.60;99.90;;;;;;5125637;27;20557;-81
2024/01/05 06:08:52;;;;;;;61.50;20.08;;;2.60;99.90;;;;;;5092469;27;20369;-80
2024/01/05 06:11:19;;;;;;;64.15;18.63;;;2.60;99.90;;;;;;5113748;27;20039;-81
2024/01/05 06:13:45;;;;;;;70.03;19.73;;;2.60;99.90;;;;;;5102078;27;20518;-80
2024/01/05 06:16:12;;;;;;;65.07;20.48;;;2.70;99.90;;;;;;5090001;27;20043;-81
2024/01/05 06:18:38;;;;;;;68.00;19.75;;;;;;;;;;5113396;27;20499;-83
2024/01/05 06:21:04;;;;;;;59.28;18.75;;;;;;;;;;5089107;27;20039;-84
2024/01/05 06:23:31;;;;;;;63.13;20.05;;;;;;;;;;5089100;27;20035;-82
2024/01/05 06:25:57;;;;;;;66.03;20.00;;;;;;;;;;5089143;27;20043;-81
2024/01/05 06:28:23;;;;;;;61.15;20.05;;;;;;;;;;5106622;27;20133;-83
2024/01/05 06:30:52;;;;;;;66.68;20.17;;;2.70;99.90;;;;;;5088834;27;20047;-81
2024/01/05 06:33:18;;;;;;;67.60;20.35;;;;;;;;;;5088755;27;20439;-83
2024/01/05 06:35:50;;;;;;;69.53;19.67;;;2.70;99.90;;;;;;5088931;27;20043;-82
2024/01/05 06:38:20;;;;;;;69.25;21.45;;;;;;;;;;5089189;27;20176;-82
2024/01/05 06:40:46;;;;;;;78.75;21.60;;;2.80;99.90;;;;;;5088807;27;20043;-81
2024/01/05 06:43:12;;;;;;;81.18;22.90;;;;;;;;;;5115672;27;20065;-81
2024/01/05 06:45:38;;;;;;;83.10;23.75;;;;;;;;;;5125786;27;20038;-82
2024/01/05 06:48:05;;;;;;;81.43;23.45;;;2.80;99.90;;;;;;5100629;27;20536;-81
2024/01/05 06:50:31;;;;;;;80.90;22.50;;;;;;;;;;5089171;27;20138;-80
2024/01/05 06:52:57;;;;;;;100.90;26.40;;;;;;;;;;5088602;27;20520;-80
2024/01/05 06:55:23;;;;;;;91.68;24.73;;;;;;;;;;5088087;27;20522;-80
2024/01/05 06:57:50;;;;;;;89.45;24.73;;;;;;;;;;5105079;27;20053;-83
2024/01/05 07:00:19;;;;;;;98.05;25.58;;;2.70;99.90;;;;;;5100606;27;20047;-81
2024/01/05 07:02:45;;;;;;;93.85;26.73;;;;;;;;;;5108776;27;20146;-82
2024/01/05 07:05:11;;;;;;;94.78;25.17;;;;;;;;;;5108747;27;20039;-81
2024/01/05 07:07:39;;;;;;;95.88;25.52;;;;;;;;;;5108377;27;20081;-81
2024/01/05 07:10:06;;;;;;;103.78;29.05;;;2.90;99.90;;;;;;5108238;27;20069;-84
2024/01/05 07:12:32;;;;;;;88.40;26.48;;;;;;;;;;5125182;27;20121;-86
2024/01/05 07:14:58;;;;;;;102.97;28.65;;;;;;;;;;5107790;27;20491;-81
2024/01/05 07:17:24;;;;;;;100.15;28.25;;;;;;;;;;5101478;27;20043;-82
2024/01/05 07:19:51;;;;;;;105.35;29.38;;;;;;;;;;5124432;27;20055;-83
2024/01/05 07:22:19;;;;;;;101.93;30.48;;;;;;;;;;5100916;27;20077;-88
2024/01/05 07:24:48;;;;;;;103.80;29.95;;;2.90;99.90;;;;;;5088962;27;20337;-86
2024/01/05 07:27:20;;;;;;;96.55;29.13;;;;;;;;;;5088754;27;20520;-85
2024/01/05 07:29:46;;;;;;;;;;;3.00;99.90;;;;;;5106096;27;20035;-84
2024/01/05 07:32:12;;;;;;;102.63;28.48;;;;;;;;;;5118939;27;19919;-82
2024/01/05 07:34:38;;;;;;;106.20;30.00;;;;;;;;;;5088654;27;20047;-82
2024/01/05 07:37:10;;;;;;;98.05;27.98;;;3.00;99.90;;;;;;5110040;27;20035;-83
2024/01/05 07:39:36;;;;;;;122.37;31.23;;;;;;;;;;5107351;27;20046;-83
2024/01/05 07:42:02;;;;;;;102.88;31.42;;;;;;;;;;5107511;27;20061;-80
2024/01/05 07:44:28;;;;;;;126.55;33.42;;;;;;;;;;5124124;27;20049;-82
2024/01/05 07:46:55;;;;;;;130.15;33.15;;;;;;;;;;5107744;27;20047;-81
2024/01/05 07:49:21;;;;;;;104.32;30.05;;;;;;;;;;5107479;27;20070;-80
2024/01/05 07:51:47;;;;;;;92.93;29.80;;;;;;;;;;5109597;27;20364;-82
2024/01/05 07:54:13;;;;;;;113.18;30.67;;;;;;;;;;5112437;27;20054;-83
2024/01/05 07:56:39;;;;;;;102.53;30.35;;;;;;;;;;5112100;27;20072;-85
2024/01/05 07:59:05;;;;;;;108.57;29.48;;;;;;;;;;5097466;27;20058;-80
2024/01/05 08:01:32;;;;;;;98.53;29.02;;;;;;;;;;5092430;27;20043;-83
2024/01/05 08:03:58;;;;;;;111.22;29.85;;;;;;;;;;5102375;27;20056;-81
2024/01/05 08:06:24;;;;;;;114.93;31.83;;;;;;;;;;5109798;27;20035;-82
2024/01/05 08:08:50;;;;;;;115.03;31.95;;;3.20;99.90;;;;;;5092354;27;20071;-80
2024/01/05 08:11:16;;;;;;;102.78;29.42;;;;;;;;;;5092384;27;20042;-83
2024/01/05 08:13:46;;;;;;;108.07;30.27;;;3.10;99.90;;;;;;5109473;27;20046;-81
2024/01/05 08:16:13;;;;;;;120.05;34.53;;;;;;;;;;5109022;27;20702;-81
2024/01/05 08:18:40;;;;;;;123.18;32.63;;;3.40;99.90;;;;;;5111189;27;20130;-82
2024/01/05 08:21:06;;;;;;;123.40;32.92;;;;;;;;;;5111230;27;20058;-84
2024/01/05 08:23:32;;;;;;;121.93;31.20;;;;;;;;;;5111766;27;20053;-82
2024/01/05 08:25:59;;;;;;;116.90;33.88;;;;;;;;;;5096174;27;20035;-82
2024/01/05 08:28:25;;;;;;;126.03;33.75;;;3.50;99.90;;;;;;5091984;27;20434;-81
2024/01/05 08:30:52;;;;;;;110.97;30.88;;;;;;;;;;5091021;27;20100;-84
2024/01/05 08:33:18;;;;;;;114.53;33.45;;;;;;;;;;5099008;27;20043;-81
2024/01/05 08:35:45;;;;;;;111.68;32.53;;;;;;;;;;5109788;27;20794;-81
2024/01/05 08:38:11;;;;;;;111.47;32.55;;;;;;;;;;5110525;27;20042;-82
2024/01/05 08:40:37;;;;;;;114.13;32.30;;;;;;;;;;5110971;27;20039;-81
2024/01/05 08:43:03;;;;;;;112.63;30.10;;;3.80;99.90;;;;;;5099116;27;20468;-84
2024/01/05 08:45:35;;;;;;;120.10;33.83;;;;;;;;;;5107191;27;20145;-82
2024/01/05 08:48:05;;;;;;;119.82;32.53;;;;;;;;;;5101767;27;20038;-81
2024/01/05 08:50:31;;;;;;;124.50;34.30;;;;;;;;;;5116241;27;20047;-83
2024/01/05 08:52:57;;;;;;;119.53;31.92;;;;;;;;;;5107249;27;20047;-83
2024/01/05 08:55:23;;;;;;;111.25;32.65;;;3.90;99.90;;;;;;5099358;27;20122;-81
2024/01/05 08:57:49;;;;;;;125.70;34.00;;;;;;;;;;5090188;27;20118;-82
2024/01/05 09:00:16;;;;;;;115.47;33.00;;;4.10;99.90;;;;;;5086765;27;20086;-85
2024/01/05 09:02:42;;;;;;;123.72;35.05;;;;;;;;;;5114491;27;20045;-82
2024/01/05 09:05:08;;;;;;;120.47;31.67;;;;;;;;;;5115819;27;20042;-81
2024/01/05 09:07:34;;;;;;;108.85;29.92;;;;;;;;;;5097265;27;20045;-81
2024/01/05 09:10:01;;;;;;;103.28;31.40;;;2.30;99.90;;;;;;5119518;27;20035;-82
2024/01/05 09:12:29;;;;;;;110.32;31.13;;;3.80;99.90;;;;;;5092420;27;20537;-86
2024/01/05 09:14:55;;;;;;;115.28;32.25;;;4.00;99.90;;;;;;5090817;27;20035;-83
2024/01/05 09:17:21;;;;;;;102.68;31.92;;;;;;;;;;5114195;27;20799;-81
2024/01/05 09:19:48;;;;;;;125.10;31.25;;;3.80;99.90;;;;;;5100787;27;20053;-82
2024/01/05 09:22:14;;;;;;;138.05;33.53;;;;;;;;;;5092481;27;20500;-81
2024/01/05 09:24:40;;;;;;;118.45;31.45;;;;;;;;;;5091106;27;20119;-82
2024/01/05 09:27:06;;;;;;;123.85;33.05;;;;;;;;;;5098483;27;20412;-81
2024/01/05 09:29:35;;;;;;;106.30;30.92;;;;;;;;;;5106179;27;20526;-82
2024/01/05 09:32:02;;;;;;;120.43;34.35;;;;;;;;;;5090162;27;20587;-83
2024/01/05 09:34:28;;;;;;;144.60;36.17;;;;;;;;;;5107336;27;20051;-82
2024/01/05 09:36:54;;;;;;;129.52;32.72;;;;;;;;;;5076041;27;20044;-82
2024/01/05 09:39:21;;;;;;;113.90;30.88;;;;;;;;;;5100911;27;20126;-81
2024/01/05 09:41:50;;;;;;;128.38;32.42;;;;;;;;;;5116893;27;20043;-84
2024/01/05 09:44:16;;;;;;;120.05;32.35;;;;;;;;;;5090427;27;20043;-81
2024/01/05 09:46:43;;;;;;;108.68;30.40;;;4.00;99.90;;;;;;5082988;27;20039;-83
2024/01/05 09:49:09;;;;;;;117.93;32.95;;;;;;;;;;5085238;27;20447;-83
2024/01/05 09:51:36;;;;;;;141.68;33.72;;;;;;;;;;5107400;27;20047;-86
2024/01/05 09:54:02;;;;;;;132.07;34.63;;;;;;;;;;5102718;27;20082;-84
2024/01/05 09:56:29;;;;;;;141.68;34.45;;;;;;;;;;5075665;27;20036;-83
2024/01/05 09:58:55;;;;;;;131.90;35.63;;;;;;;;;;5079729;27;20683;-86
2024/01/05 10:01:30;;;;;;;143.38;35.85;;;4.00;99.90;;;;;;5076017;27;20043;-82
2024/01/05 10:03:57;;;;;;;142.15;35.13;;;4.00;99.90;;;;;;5082095;27;20104;-84
2024/01/05 10:06:25;;;;;;;148.95;35.28;;;;;;;;;;5099981;27;20039;-84
2024/01/05 10:08:55;;;;;;;141.15;37.72;;;4.10;99.90;;;;;;5089654;27;20042;-83
2024/01/05 10:11:29;;;;;;;157.07;37.83;;;4.10;99.90;;;;;;5086385;27;20043;-84
2024/01/05 10:13:57;;;;;;;127.22;34.92;;;4.10;99.90;;;;;;5103738;27;20051;-85
2024/01/05 10:16:27;;;;;;;153.32;37.78;;;;;;;;;;5087661;27;20491;-83
2024/01/05 10:18:53;;;;;;;121.88;33.80;;;;;;;;;;5082660;27;20032;-83
2024/01/05 10:21:22;;;;;;;121.68;33.08;;;4.10;99.90;;;;;;5081078;27;20086;-83
2024/01/05 10:23:48;;;;;;;117.63;33.35;;;;;;;;;;5109985;27;20070;-84
2024/01/05 10:26:16;;;;;;;135.35;34.15;;;4.20;99.90;;;;;;5098484;27;20129;-82
2024/01/05 10:28:43;;;;;;;121.13;34.65;;;;;;;;;;5082544;27;20039;-82
2024/01/05 10:31:13;;;;;;;137.05;34.88;;;;;;;;;;5085324;27;20121;-82
2024/01/05 10:33:52;;;;;;;118.18;32.40;;;4.30;99.90;;;;;;5095171;27;20039;-83
2024/01/05 10:36:19;;;;;;;130.55;34.50;;;4.30;99.90;;;;;;5097282;27;20134;-82
2024/01/05 10:38:46;;;;;;;130.23;33.30;;;4.40;99.90;;;;;;5089108;27;21017;-84
2024/01/05 10:41:13;;;;;;;101.85;31.02;;;;;;;;;;5099451;27;20416;-82
2024/01/05 10:43:43;;;;;;;133.80;32.20;;;4.50;99.90;;;;;;5106170;27;20049;-83
2024/01/05 10:46:11;;;;;;;105.25;32.28;;;5.80;99.90;;;;;;5088850;27;20556;-83
2024/01/05 10:48:39;;;;;;;122.88;33.53;;;4.60;99.90;;;;;;5110810;27;20035;-82
2024/01/05 10:51:06;;;;;;;97.22;29.98;;;4.60;99.90;;;;;;5101713;27;20213;-83
2024/01/05 10:53:35;;;;;;;104.03;31.20;;;;;;;;;;5093033;27;20038;-83
2024/01/05 10:56:02;;;;;;;97.78;28.70;;;;;;;;;;5089519;27;20035;-82
2024/01/05 10:58:29;;;;;;;120.00;32.47;;;;;;;;;;5105810;27;20050;-82
2024/01/05 11:01:00;;;;;;;125.88;32.55;;;4.70;99.90;;;;;;5088649;27;20046;-81
2024/01/05 11:03:40;;;;;;;171.70;34.63;;;4.80;99.90;;;;;;5089057;27;20042;-83
2024/01/05 11:06:17;;;;;;;137.48;33.47;;;;;;;;;;5077648;27;20049;-84
2024/01/05 11:09:05;;;;;;;111.30;31.60;;;4.80;99.90;;;;;;5089796;27;20043;-83
2024/01/05 11:11:32;;;;;;;110.18;30.55;;;;;;;;;;5101972;27;20043;-82
2024/01/05 11:14:17;;;;;;;101.03;28.77;;;;;;;;;;5093025;27;20856;-82
2024/01/05 11:17:10;;;;;;;115.60;29.80;;;4.90;99.90;;;;;;5105492;27;20419;-82
2024/01/05 11:19:55;;;;;;;83.07;27.40;;;;;;;;;;5101796;27;20074;-83
2024/01/05 11:22:35;;;;;;;101.30;28.08;;;4.80;99.90;;;;;;5088784;27;20146;-82
2024/01/05 11:25:02;;;;;;;85.95;25.17;;;;;;;;;;5089840;27;20042;-84
2024/01/05 11:27:28;;;;;;;87.18;27.13;;;;;;;;;;5100841;27;20042;-84
2024/01/05 11:29:57;;;;;;;97.35;27.27;;;4.90;99.90;;;;;;5077495;27;20039;-83
2024/01/05 11:32:44;;;;;;;107.68;30.10;;;4.80;99.90;;;;;;5082635;27;20723;-83
2024/01/05 11:35:16;;;;;;;117.10;31.30;;;4.80;99.90;;;;;;5097509;27;20074;-85
2024/01/05 11:37:49;;;;;;;113.53;29.48;;;4.80;99.90;;;;;;5086309;27;20653;-84
2024/01/05 11:40:28;;;;;;;91.93;27.77;;;4.80;99.90;;;;;;5088621;27;20053;-83
2024/01/05 11:42:58;;;;;;;110.15;28.25;;;4.80;99.90;;;;;;5113882;27;20042;-82
2024/01/05 11:45:43;;;;;;;100.03;29.42;;;4.70;99.90;;;;;;5076672;28;20069;-83
2024/01/05 11:48:09;;;;;;;110.07;29.20;;;;;;;;;;5112083;27;20078;-83
2024/01/05 11:50:36;;;;;;;122.93;28.73;;;4.60;99.90;;;;;;5103446;27;20523;-83
2024/01/05 11:53:15;;;;;;;123.25;30.90;;;4.70;99.90;;;;;;5084743;27;20039;-83
2024/01/05 11:56:07;;;;;;;108.25;29.83;;;4.70;99.90;;;;;;5084818;27;20039;-83
2024/01/05 11:58:39;;;;;;;99.22;27.55;;;;;;;;;;5087055;27;20047;-81
2024/01/05 12:01:09;;;;;;;80.18;25.48;;;4.70;99.90;;;;;;5091060;28;20099;-84
2024/01/05 12:03:35;;;;;;;88.55;25.77;;;;;;;;;;5087860;28;20078;-82
2024/01/05 12:06:03;;;;;;;82.28;24.70;;;4.80;99.90;;;;;;5111876;28;20035;-85
2024/01/05 12:08:29;;;;;;;102.22;25.52;;;;;;;;;;5115678;27;20507;-83
2024/01/05 12:10:57;;;;;;;104.00;28.30;;;4.90;99.90;;;;;;5107282;28;20123;-82
2024/01/05 12:13:24;;;;;;;100.88;28.67;;;;;;;;;;5104697;27;20046;-83
2024/01/05 12:15:54;;;;;;;98.93;26.90;;;4.90;99.90;;;;;;5087431;27;20589;-86
2024/01/05 12:18:26;;;;;;;97.82;28.45;;;;;;;;;;5109872;27;20122;-81
2024/01/05 12:21:00;;;;;;;117.82;29.60;;;4.80;99.90;;;;;;5100064;27;20042;-84
2024/01/05 12:23:26;;;;;;;117.40;29.95;;;;;;;;;;5089164;28;20050;-81
2024/01/05 12:26:03;;;;;;;126.85;30.92;;;5.50;99.90;;;;;;5084515;27;20052;-84
2024/01/05 12:28:33;;;;;;;130.15;33.05;;;5.00;99.90;;;;;;5087842;28;20069;-81
2024/01/05 12:31:00;;;;;;;98.70;27.77;;;;;;;;;;5088250;28;20039;-85
2024/01/05 12:33:30;;;;;;;114.82;31.27;;;5.00;99.90;;;;;;5088322;28;20058;-82
2024/01/05 12:35:56;;;;;;;93.20;29.05;;;;;;;;;;5089693;28;20051;-84
2024/01/05 12:38:32;;;;;;;104.60;30.63;;;5.10;99.90;;;;;;5089569;27;20050;-84
2024/01/05 12:41:09;;;;;;;107.30;29.45;;;5.10;99.90;;;;;;5092036;27;20766;-81
2024/01/05 12:43:45;;;;;;;103.63;28.95;;;5.10;99.90;;;;;;5097320;27;20768;-85
2024/01/05 12:46:12;;;;;;;104.07;29.60;;;5.10;99.90;;;;;;5103881;27;20039;-82
2024/01/05 12:48:38;;;;;;;94.00;29.65;;;;;;;;;;5090450;27;20035;-82
2024/01/05 12:51:09;;;;;;;94.43;28.08;;;4.20;99.90;;;;;;5118274;27;20046;-82
2024/01/05 12:53:35;;;;;;;117.35;29.13;;;5.10;99.90;;;;;;5111726;27;20125;-82
2024/01/05 12:56:11;;;;;;;118.15;30.17;;;5.00;99.90;;;;;;5090717;27;20043;-83
2024/01/05 12:58:42;;;;;;;112.30;29.02;;;5.10;99.90;;;;;;5119905;27;20038;-82
2024/01/05 13:01:23;;;;;;;112.38;29.63;;;5.10;99.90;;;;;;5090598;27;20047;-82
2024/01/05 13:03:56;;;;;;;100.28;28.88;;;5.10;99.90;;;;;;5085389;27;20042;-82
2024/01/05 13:06:27;;;;;;;150.15;33.67;;;5.10;99.90;;;;;;5113854;27;20056;-83
2024/01/05 13:08:53;;;;;;;226.57;39.85;;;;;;;;;;5091533;27;20073;-86
2024/01/05 13:11:19;;;;;;;121.65;32.80;;;;;;;;;;5111910;27;20096;-86
2024/01/05 13:13:46;;;;;;;217.80;41.53;;;5.00;99.90;;;;;;5115578;27;20046;-84
2024/01/05 13:16:12;;;;;;;189.43;38.38;;;;;;;;;;5111670;27;20122;-83
2024/01/05 13:18:39;;;;;;;150.25;34.80;;;;;;;;;;5102916;27;20074;-84
2024/01/05 13:21:05;;;;;;;142.55;34.13;;;;;;;;;;5107231;27;20039;-83
2024/01/05 13:23:32;;;;;;;191.90;37.63;;;5.00;99.90;;;;;;5117458;27;20057;-83
2024/01/05 13:25:58;;;;;;;221.70;38.47;;;;;;;;;;5090198;27;20055;-83
2024/01/05 13:28:24;;;;;;;133.30;33.95;;;;;;;;;;5099089;27;20050;-83
2024/01/05 13:30:53;;;;;;;130.15;33.97;;;;;;;;;;5091237;27;20043;-82
2024/01/05 13:33:19;;;;;;;124.95;33.35;;;;;;;;;;5091018;27;20620;-82
2024/01/05 13:35:47;;;;;;;347.55;44.47;;;;;;;;;;5093952;27;20049;-84
2024/01/05 13:38:13;;;;;;;198.85;39.28;;;;;;;;;;5094019;27;20084;-83
2024/01/05 13:40:41;;;;;;;144.25;35.35;;;;;;;;;;5108538;27;20043;-83
2024/01/05 13:43:10;;;;;;;136.13;33.13;;;5.10;99.90;;;;;;5100040;27;20419;-83
2024/01/05 13:45:36;;;;;;;115.97;29.60;;;;;;;;;;5090677;27;20039;-82